Time;durP1;ratioP1;P1;durP2;ratioP2;P2;SDS_P1;SDS_P2;PMS_P1;PMS_P2;Temp;Humidity;BMP_temperature;BMP_pressure;BME280_temperature;BME280_humidity;BME280_pressure;Samples;Min_cycle;Max_cycle;Signal;HPM_P1;HPM_P2
2022/11/17 00:01:47;;;;;;;11.70;5.00;;;;;;;8.96;100.00;98615.72;6536543;22;20046;-73
2022/11/17 00:04:19;;;;;;;11.00;4.57;;;;;;;8.91;100.00;98597.72;6537729;22;20101;-73
2022/11/17 00:06:51;;;;;;;13.73;5.70;;;;;;;8.97;100.00;98603.56;6536564;22;20026;-73
2022/11/17 00:09:22;;;;;;;11.30;5.00;;;;;;;8.98;100.00;98598.28;6538087;22;20007;-73
2022/11/17 00:14:43;;;;;;;9.10;5.22;;;;;;;9.01;100.00;98602.53;6538399;22;20011;-71
2022/11/17 00:17:15;;;;;;;10.07;4.70;;;;;;;9.06;100.00;98585.00;6538036;22;20007;-72
2022/11/17 00:22:36;;;;;;;8.02;4.45;;;;;;;9.03;100.00;98574.72;6537517;22;20015;-73
2022/11/17 00:25:07;;;;;;;8.67;4.50;;;;;;;9.04;100.00;98555.63;6537580;22;20004;-72
2022/11/17 00:27:39;;;;;;;7.93;4.77;;;;;;;8.98;100.00;98551.53;6537922;22;20031;-71
2022/11/17 00:34:03;;;;;;;7.73;4.10;;;;;;;9.05;100.00;98549.53;6537725;22;20090;-72
2022/11/17 00:35:54;;;;;;;10.88;4.72;;;;;;;9.03;100.00;98536.59;6537577;22;20015;-74
2022/11/17 00:38:25;;;;;;;10.00;4.03;;;;;;;9.03;100.00;98536.59;6538493;22;20389;-72
2022/11/17 00:40:57;;;;;;;13.07;4.80;;;;;;;9.03;100.00;98530.53;6537466;22;20027;-73
2022/11/17 00:43:28;;;;;;;9.88;4.43;;;;;;;9.04;100.00;98524.44;6536056;22;20012;-73
2022/11/17 00:46:00;;;;;;;13.13;5.20;;;;;;;9.05;100.00;98531.34;6536176;22;20004;-73
2022/11/17 00:48:31;;;;;;;7.40;4.20;;;;;;;9.04;100.00;98537.44;6538112;22;20365;-72
2022/11/17 00:51:04;;;;;;;8.60;4.17;;;;;;;9.06;100.00;98530.41;6537726;22;20014;-74
2022/11/17 00:53:35;;;;;;;;;;;;;;;9.00;100.00;98518.53;6538002;22;20007;-73
2022/11/17 00:56:06;;;;;;;7.28;4.03;;;;;;;9.05;100.00;98510.56;6537498;22;20320;-73
2022/11/17 00:58:38;;;;;;;9.00;3.70;;;;;;;9.07;100.00;98525.16;6537025;22;20401;-73
2022/11/17 01:01:10;;;;;;;9.03;4.20;;;;;;;9.04;100.00;98514.06;6538219;22;20027;-73
2022/11/17 01:03:41;;;;;;;10.97;4.80;;;;;;;9.03;100.00;98505.41;6536966;22;20045;-73
2022/11/17 01:06:16;;;;;;;7.43;4.17;;;;;;;9.02;100.00;98508.91;6537416;22;20019;-73
2022/11/17 01:08:48;;;;;;;7.93;4.55;;;;;;;9.05;100.00;98507.94;6537439;22;20010;-73
2022/11/17 01:11:19;;;;;;;12.07;4.97;;;;;;;9.04;100.00;98517.47;6535453;22;20031;-73
2022/11/17 01:13:54;;;;;;;8.30;3.90;;;;;;;9.03;100.00;98473.38;6536983;22;20007;-72
2022/11/17 01:16:27;;;;;;;12.30;4.50;;;;;;;9.08;100.00;98481.81;6538157;22;20004;-73
2022/11/17 01:19:01;;;;;;;7.32;3.80;;;;;;;9.06;100.00;98455.03;6537423;22;20010;-73
2022/11/17 01:21:32;;;;;;;6.43;4.15;;;;;;;9.15;100.00;98456.41;6537687;22;20356;-72
2022/11/17 01:24:04;;;;;;;6.67;3.00;;;;;;;9.14;100.00;98471.16;6537331;22;20004;-71
2022/11/17 01:26:36;;;;;;;6.70;2.73;;;;;;;9.16;100.00;98476.28;6537700;22;20030;-73
2022/11/17 01:29:09;;;;;;;5.22;2.83;;;;;;;9.15;100.00;98459.84;6537277;22;20436;-74
2022/11/17 01:31:42;;;;;;;5.63;2.78;;;;;;;9.16;100.00;98460.69;6537302;22;20479;-74
2022/11/17 01:34:13;;;;;;;6.53;3.15;;;;;;;9.15;100.00;98459.84;6537266;22;20004;-73
2022/11/17 01:39:35;;;;;;;6.22;3.17;;;;;;;9.18;100.00;98458.88;6536894;22;20023;-75
2022/11/17 01:42:25;;;;;;;6.03;2.80;;;;;;;9.15;100.00;98451.22;6537706;22;20008;-74
2022/11/17 01:45:18;;;;;;;5.30;2.40;;;;;;;9.16;100.00;98425.16;6537237;22;20004;-75
2022/11/17 01:47:58;;;;;;;4.10;2.35;;;;;;;9.20;100.00;98420.66;6537657;22;20031;-73
2022/11/17 01:50:39;;;;;;;5.32;2.38;;;;;;;9.21;100.00;98412.78;6535949;22;20014;-75
2022/11/17 01:53:16;;;;;;;7.72;2.88;;;;;;;9.21;100.00;98430.13;6537801;22;20468;-74
2022/11/17 01:55:59;;;;;;;3.67;2.40;;;;;;;9.23;100.00;98434.34;6536747;22;20000;-74
2022/11/17 01:58:32;;;;;;;;;;;;;;;9.18;100.00;98430.28;6537820;22;20317;-73
2022/11/17 02:01:04;;;;;;;3.78;2.03;;;;;;;9.24;100.00;98436.06;6537067;22;19926;-74
2022/11/17 02:03:38;;;;;;;5.07;2.37;;;;;;;9.27;100.00;98448.91;6536723;22;20016;-74
2022/11/17 02:06:19;;;;;;;8.57;2.60;;;;;;;9.27;100.00;98441.13;6535394;22;20010;-75
2022/11/17 02:08:52;;;;;;;6.57;2.90;;;;;;;9.26;100.00;98422.97;6536590;22;20015;-74
2022/11/17 02:11:25;;;;;;;7.45;2.50;;;;;;;9.30;100.00;98417.53;6536971;22;20415;-75
2022/11/17 02:13:57;;;;;;;5.68;2.40;;;;;;;9.29;100.00;98420.25;6537648;22;20007;-75
2022/11/17 02:16:28;;;;;;;5.97;2.73;;;;;;;9.29;100.00;98428.03;6536933;22;20034;-74
2022/11/17 02:18:59;;;;;;;6.70;2.50;;;;;;;9.32;100.00;98420.09;6510485;22;20008;-74
2022/11/17 02:22:08;;;;;;;6.03;2.70;;;;;;;9.34;100.00;98417.41;6536951;22;20004;-75
2022/11/17 02:24:53;;;;;;;5.50;2.08;;;;;;;9.36;100.00;98400.84;6536898;22;20083;-74
2022/11/17 02:27:25;;;;;;;3.95;2.30;;;;;;;9.36;100.00;98393.03;6536944;22;20363;-73
2022/11/17 02:30:05;;;;;;;5.63;2.13;;;;;;;9.40;100.00;98372.94;6536781;22;20036;-74
2022/11/17 02:33:01;;;;;;;2.72;1.40;;;;;;;9.53;100.00;98370.59;6536749;22;20003;-74
2022/11/17 02:35:40;;;;;;;2.30;1.35;;;;;;;9.54;100.00;98362.72;6537890;22;20008;-75
2022/11/17 02:38:34;;;;;;;6.82;1.55;;;;;;;9.59;100.00;98354.72;6536656;22;20004;-73
2022/11/17 02:41:21;;;;;;;3.67;1.40;;;;;;;9.65;100.00;98357.03;6536270;22;20007;-73
2022/11/17 02:44:04;;;;;;;2.45;1.20;;;;;;;9.66;100.00;98353.53;6536244;22;20417;-74
2022/11/17 02:46:54;;;;;;;2.80;1.33;;;;;;;9.63;100.00;98356.25;6537117;22;20027;-75
2022/11/17 02:49:33;;;;;;;3.10;1.80;;;;;;;9.58;100.00;98356.47;6537188;22;20368;-73
2022/11/17 02:52:07;;;;;;;2.38;1.30;;;;;;;9.56;100.00;98350.47;6536411;22;20079;-76
2022/11/17 02:54:38;;;;;;;4.53;2.00;;;;;;;9.52;100.00;98358.53;6536754;22;20008;-74
2022/11/17 02:57:32;;;;;;;1.50;1.10;;;;;;;9.46;100.00;98338.84;6536801;22;20053;-75
2022/11/17 03:00:13;;;;;;;1.73;1.10;;;;;;;9.44;100.00;98330.28;6536876;22;19995;-75
2022/11/17 03:03:24;;;;;;;4.32;1.52;;;;;;;9.40;100.00;98332.19;6536078;22;20086;-74
2022/11/17 03:06:00;;;;;;;3.05;1.17;;;;;;;9.43;100.00;98331.19;6536362;22;20130;-73
2022/11/17 03:09:14;;;;;;;3.30;1.15;;;;;;;9.33;100.00;98327.34;6536734;22;20000;-75
2022/11/17 03:11:58;;;;;;;2.22;1.08;;;;;;;9.28;100.00;98317.16;6536765;22;20004;-75
2022/11/17 03:14:47;;;;;;;2.08;1.05;;;;;;;9.25;100.00;98323.34;6537099;22;20474;-74
2022/11/17 03:17:22;;;;;;;1.80;1.15;;;;;;;9.19;100.00;98315.00;6536646;22;20003;-74
2022/11/17 03:20:07;;;;;;;2.58;1.15;;;;;;;9.15;100.00;98316.91;6535016;22;20011;-74
2022/11/17 03:23:00;;;;;;;1.10;0.90;;;;;;;9.11;100.00;98302.34;6538405;22;20010;-73
2022/11/17 03:25:36;;;;;;;2.63;1.02;;;;;;;9.05;100.00;98302.66;6538684;22;20420;-75
2022/11/17 03:28:09;;;;;;;1.00;0.75;;;;;;;9.02;100.00;98297.59;6538266;22;20004;-76
2022/11/17 03:30:45;;;;;;;4.15;1.73;;;;;;;9.03;100.00;98286.25;6538137;22;20078;-75
2022/11/17 03:33:20;;;;;;;1.55;0.68;;;;;;;9.07;100.00;98288.66;6538556;22;20011;-75
2022/11/17 03:36:01;;;;;;;2.22;1.13;;;;;;;9.07;100.00;98291.25;6538526;22;19999;-74
2022/11/17 03:38:37;;;;;;;2.92;1.00;;;;;;;9.11;100.00;98289.34;6538094;22;20010;-75
2022/11/17 03:41:13;;;;;;;1.70;0.93;;;;;;;9.11;100.00;98287.63;6538855;22;20045;-75
2022/11/17 03:43:48;;;;;;;2.55;0.90;;;;;;;9.15;100.00;98277.06;6538002;22;20010;-74
2022/11/17 03:46:21;;;;;;;2.38;0.90;;;;;;;9.13;100.00;98287.53;6538038;22;20004;-75
2022/11/17 03:49:13;;;;;;;2.47;0.85;;;;;;;9.21;100.00;98276.75;6538817;22;20000;-74
2022/11/17 03:51:45;;;;;;;2.47;1.45;;;;;;;9.26;100.00;98267.00;6537725;22;20004;-74
2022/11/17 03:54:17;;;;;;;3.07;1.10;;;;;;;9.34;100.00;98269.22;6538344;22;20056;-73
2022/11/17 03:57:03;;;;;;;1.87;0.93;;;;;;;9.46;100.00;98251.25;6538310;22;20006;-73
2022/11/17 04:00:02;;;;;;;1.90;0.90;;;;;;;9.51;100.00;98247.63;6537831;22;20519;-73
2022/11/17 04:02:34;;;;;;;2.22;0.90;;;;;;;9.56;100.00;98240.41;6537694;22;20004;-75
2022/11/17 04:05:06;;;;;;;1.73;0.80;;;;;;;9.65;100.00;98255.56;6538258;22;20039;-73
2022/11/17 04:07:42;;;;;;;1.80;0.97;;;;;;;9.67;100.00;98256.34;6538136;22;20007;-73
2022/11/17 04:10:19;;;;;;;2.25;0.88;;;;;;;9.69;100.00;98249.28;6539163;22;20125;-75
2022/11/17 04:15:57;;;;;;;2.63;0.80;;;;;;;9.72;100.00;98243.09;6538412;22;20008;-74
2022/11/17 04:18:29;;;;;;;3.13;1.50;;;;;;;9.78;100.00;98241.03;6538013;22;20003;-75
2022/11/17 04:21:01;;;;;;;3.90;1.10;;;;;;;9.75;100.00;98262.00;6537947;22;20018;-74
2022/11/17 04:23:32;;;;;;;2.70;0.90;;;;;;;9.78;100.00;98264.44;6537780;22;20015;-74
2022/11/17 04:28:54;;;;;;;3.05;1.35;;;;;;;9.68;100.00;98256.25;6537868;22;20012;-74
2022/11/17 04:31:27;;;;;;;3.13;1.53;;;;;;;9.62;100.00;98245.31;6537904;22;20003;-73
2022/11/17 04:34:04;;;;;;;2.45;1.45;;;;;;;9.52;100.00;98255.34;6536053;22;20594;-72
2022/11/17 04:36:39;;;;;;;3.50;1.50;;;;;;;9.45;100.00;98260.00;6538596;22;20015;-72
2022/11/17 04:39:12;;;;;;;3.35;1.55;;;;;;;9.42;100.00;98251.53;6537791;22;20481;-74
2022/11/17 04:41:53;;;;;;;4.15;1.63;;;;;;;9.37;100.00;98228.34;6538158;22;20007;-73
2022/11/17 04:44:27;;;;;;;3.00;1.65;;;;;;;9.28;100.00;98214.00;6538019;22;20015;-73
2022/11/17 04:47:00;;;;;;;5.10;1.75;;;;;;;9.29;100.00;98212.28;6537671;22;20083;-73
2022/11/17 04:49:32;;;;;;;7.82;2.10;;;;;;;9.24;100.00;98206.44;6536895;22;20007;-73
2022/11/17 04:52:04;;;;;;;4.57;2.03;;;;;;;9.25;100.00;98203.75;6537777;22;20027;-74
2022/11/17 04:54:35;;;;;;;2.50;1.60;;;;;;;9.23;100.00;98205.59;6537571;22;20053;-72
2022/11/17 04:57:07;;;;;;;4.47;1.90;;;;;;;9.23;100.00;98200.41;6537296;22;20004;-72
2022/11/17 04:59:38;;;;;;;6.53;1.90;;;;;;;9.24;100.00;98203.84;6537187;22;20121;-71
2022/11/17 05:02:09;;;;;;;9.57;1.90;;;;;;;9.25;100.00;98202.94;6537176;22;20008;-73
2022/11/17 05:04:56;;;;;;;6.37;2.00;;;;;;;9.24;100.00;98209.91;6537393;22;20016;-73
2022/11/17 05:07:27;;;;;;;3.28;1.80;;;;;;;9.25;100.00;98211.56;6536990;22;20452;-73
2022/11/17 05:10:00;;;;;;;6.20;2.00;;;;;;;9.23;100.00;98204.78;6537607;22;20008;-74
2022/11/17 05:17:03;;;;;;;8.60;2.20;;;;;;;9.28;100.00;98205.38;6536324;22;20016;-73
2022/11/17 05:18:12;;;;;;;5.68;2.00;;;;;;;9.30;100.00;98193.97;6537044;22;20015;-73
2022/11/17 05:20:43;;;;;;;8.97;2.40;;;;;;;9.31;100.00;98205.22;6537485;22;20023;-73
2022/11/17 05:26:04;;;;;;;7.30;2.72;;;;;;;9.36;100.00;98247.44;6536439;22;20011;-74
2022/11/17 05:28:36;;;;;;;8.70;2.13;;;;;;;9.37;100.00;98258.69;6536960;22;20007;-76
2022/11/17 05:31:07;;;;;;;9.73;2.23;;;;;;;9.37;100.00;98256.06;6537425;22;20004;-72
2022/11/17 05:33:39;;;;;;;9.73;2.60;;;;;;;9.38;100.00;98252.56;6537318;22;20007;-74
2022/11/17 05:36:11;;;;;;;11.32;2.58;;;;;;;9.35;100.00;98245.75;6536967;22;20018;-74
2022/11/17 05:38:45;;;;;;;10.38;2.50;;;;;;;9.37;100.00;98262.13;6537291;22;20008;-74
2022/11/17 05:41:17;;;;;;;12.50;3.60;;;;;;;9.36;100.00;98257.84;6537232;22;20064;-74
2022/11/17 05:43:49;;;;;;;8.93;2.45;;;;;;;9.34;100.00;98261.41;6535479;22;20003;-75
2022/11/17 05:46:21;;;;;;;12.30;3.03;;;;;;;9.32;100.00;98256.28;6537882;22;20439;-75
2022/11/17 05:48:52;;;;;;;11.27;2.60;;;;;;;9.30;100.00;98255.53;6535725;22;20039;-74
2022/11/17 05:51:24;;;;;;;12.93;2.97;;;;;;;9.32;100.00;98264.09;6537009;22;20081;-72
2022/11/17 05:53:55;;;;;;;12.93;2.97;;;;;;;9.34;100.00;98264.88;6537055;22;20015;-73
2022/11/17 05:56:30;;;;;;;14.30;2.80;;;;;;;9.30;100.00;98261.56;6535575;22;20031;-74
2022/11/17 05:59:05;;;;;;;13.63;3.58;;;;;;;9.34;100.00;98269.22;6535359;22;20077;-74
2022/11/17 06:01:47;;;;;;;13.23;3.13;;;;;;;9.31;100.00;98275.44;6537017;22;20008;-74
2022/11/17 06:04:19;;;;;;;12.25;3.00;;;;;;;9.34;100.00;98274.41;6536942;22;20011;-73
2022/11/17 06:06:51;;;;;;;9.60;2.80;;;;;;;9.32;100.00;98274.50;6537570;22;20087;-73
2022/11/17 06:09:22;;;;;;;17.37;2.87;;;;;;;9.33;100.00;98280.56;6536998;22;20389;-75
2022/11/17 06:11:54;;;;;;;13.27;3.10;;;;;;;9.32;100.00;98290.09;6537331;22;20473;-73
2022/11/17 06:14:25;;;;;;;16.10;4.10;;;;;;;9.31;100.00;98288.44;6535265;22;20011;-73
2022/11/17 06:17:00;;;;;;;14.70;3.37;;;;;;;9.32;100.00;98284.88;6536942;22;20094;-74
2022/11/17 06:19:39;;;;;;;13.88;3.58;;;;;;;9.28;100.00;98293.75;6536882;22;20007;-73
2022/11/17 06:22:11;;;;;;;17.60;3.65;;;;;;;9.27;100.00;98295.53;6536872;22;20000;-74
2022/11/17 06:24:44;;;;;;;11.73;3.40;;;;;;;9.24;100.00;98298.28;6536642;22;20474;-73
2022/11/17 06:27:16;;;;;;;12.50;2.67;;;;;;;9.21;100.00;98298.41;6536851;22;20012;-75
2022/11/17 06:29:48;;;;;;;9.80;2.30;;;;;;;9.17;100.00;98296.03;6535254;22;20008;-74
2022/11/17 06:32:20;;;;;;;6.97;2.05;;;;;;;9.15;100.00;98308.25;6537161;22;20008;-75
2022/11/17 06:34:51;;;;;;;7.83;2.00;;;;;;;9.12;100.00;98311.84;6536831;22;20007;-74
2022/11/17 06:37:23;;;;;;;4.73;1.67;;;;;;;9.08;100.00;98313.75;6536591;22;20012;-73
2022/11/17 06:39:55;;;;;;;12.10;3.35;;;;;;;9.02;100.00;98298.44;6536614;22;20082;-75
2022/11/17 06:45:16;;;;;;;7.38;1.90;;;;;;;8.96;100.00;98314.28;6536525;22;20016;-76
2022/11/17 06:47:47;;;;;;;7.27;1.90;;;;;;;8.91;100.00;98324.91;6536479;22;20301;-74
2022/11/17 06:50:19;;;;;;;12.90;2.60;;;;;;;8.90;100.00;98322.38;6535163;22;20325;-75
2022/11/17 06:52:50;;;;;;;12.47;2.23;;;;;;;8.87;100.00;98325.09;6535033;22;20008;-74
2022/11/17 06:55:22;;;;;;;8.40;3.27;;;;;;;8.86;100.00;98329.47;6536587;22;20079;-74
2022/11/17 06:58:02;;;;;;;9.20;2.53;;;;;;;8.86;100.00;98339.03;6538772;22;20004;-74
2022/11/17 07:00:35;;;;;;;9.10;2.03;;;;;;;8.87;100.00;98340.69;6539095;22;20027;-74
2022/11/17 07:03:08;;;;;;;9.00;2.38;;;;;;;8.80;100.00;98340.13;6538600;22;20363;-75
2022/11/17 07:06:46;;;;;;;6.75;1.90;;;;;;;8.79;100.00;98342.78;5278029;27;1300682;-74
2022/11/17 07:09:18;;;;;;;6.27;1.80;;;;;;;8.75;100.00;98345.53;5300671;28;20056;-73
2022/11/17 07:11:50;;;;;;;8.40;2.13;;;;;;;8.76;100.00;98344.63;5299717;28;20479;-73
2022/11/17 07:14:21;;;;;;;7.53;2.23;;;;;;;8.73;100.00;98351.72;5300559;28;20271;-72
2022/11/17 07:16:52;;;;;;;13.07;2.57;;;;;;;8.72;100.00;98350.00;5298909;28;20032;-72
2022/11/17 07:19:24;;;;;;;11.20;2.13;;;;;;;8.70;100.00;98362.22;5287437;28;20107;-74
2022/11/17 07:21:56;;;;;;;6.63;2.03;;;;;;;8.67;100.00;98350.22;5284330;28;20056;-72
2022/11/17 07:24:27;;;;;;;5.05;1.77;;;;;;;8.67;100.00;98362.38;5287574;28;20523;-72
2022/11/17 07:26:59;;;;;;;8.77;1.77;;;;;;;8.67;100.00;98360.59;5278016;28;20064;-72
2022/11/17 07:29:30;;;;;;;7.80;2.20;;;;;;;8.63;100.00;98364.25;5294985;28;20032;-72
2022/11/17 07:32:02;;;;;;;8.27;2.17;;;;;;;8.62;100.00;98366.94;5299037;28;20379;-72
2022/11/17 07:34:33;;;;;;;9.80;2.20;;;;;;;8.58;100.00;98361.88;5299590;28;20040;-72
2022/11/17 07:37:06;;;;;;;6.00;2.33;;;;;;;8.59;100.00;98383.47;5297354;28;20274;-73
2022/11/17 07:39:37;;;;;;;4.45;1.77;;;;;;;8.57;100.00;98374.91;5294099;28;20032;-72
2022/11/17 07:42:08;;;;;;;8.60;1.97;;;;;;;8.57;100.00;98370.56;5277796;28;20028;-72
2022/11/17 07:44:40;;;;;;;5.93;2.13;;;;;;;8.57;100.00;98380.09;5277971;28;20055;-74
2022/11/17 07:47:11;;;;;;;7.03;1.50;;;;;;;8.57;100.00;98387.91;5277507;28;20033;-72
2022/11/17 07:49:43;;;;;;;5.63;1.87;;;;;;;8.56;100.00;98388.78;5276652;28;20107;-73
2022/11/17 07:52:14;;;;;;;6.63;1.63;;;;;;;8.57;100.00;98393.09;5276614;28;20028;-72
2022/11/17 07:54:45;;;;;;;6.50;2.10;;;;;;;8.56;100.00;98387.06;5277840;28;20033;-74
2022/11/17 07:57:17;;;;;;;5.50;1.70;;;;;;;8.63;100.00;98398.03;5277451;28;20374;-73
2022/11/17 07:59:48;;;;;;;6.27;1.77;;;;;;;8.61;100.00;98396.38;5277978;28;20068;-72
2022/11/17 08:02:19;;;;;;;7.30;1.90;;;;;;;8.61;100.00;98410.22;5277054;28;20036;-72
2022/11/17 08:04:51;;;;;;;7.20;2.27;;;;;;;8.60;100.00;98408.53;5285934;28;20422;-73
2022/11/17 08:07:22;;;;;;;3.63;1.40;;;;;;;8.59;100.00;98409.44;5289459;28;20029;-73
2022/11/17 08:09:53;;;;;;;4.93;2.23;;;;;;;8.57;100.00;98406.06;5286962;28;20060;-73
2022/11/17 08:12:25;;;;;;;5.43;1.57;;;;;;;8.57;100.00;98421.66;5296770;28;20035;-73
2022/11/17 08:14:56;;;;;;;7.87;1.93;;;;;;;8.55;100.00;98413.94;5298413;28;20463;-73
2022/11/17 08:17:30;;;;;;;11.30;1.80;;;;;;;8.54;100.00;98430.41;5277564;28;20033;-72
2022/11/17 08:20:03;;;;;;;5.47;1.60;;;;;;;8.56;100.00;98422.56;5273754;28;20029;-73
2022/11/17 08:22:34;;;;;;;7.88;2.25;;;;;;;8.53;100.00;98430.47;5266357;28;20033;-74
2022/11/17 08:25:06;;;;;;;5.93;1.70;;;;;;;8.51;100.00;98427.94;5264494;28;20033;-72
2022/11/17 08:27:37;;;;;;;4.27;1.37;;;;;;;8.48;100.00;98441.03;5262780;28;20060;-73
2022/11/17 08:30:09;;;;;;;7.50;2.53;;;;;;;8.48;100.00;98432.41;5271246;28;20035;-72
2022/11/17 08:32:50;;;;;;;8.97;2.33;;;;;;;8.47;100.00;98441.09;5273042;28;20097;-73
2022/11/17 08:35:24;;;;;;;4.82;1.60;;;;;;;8.46;100.00;98439.44;5263747;28;20562;-73
2022/11/17 08:37:55;;;;;;;4.15;1.25;;;;;;;8.42;100.00;98432.63;5263478;28;20165;-72
2022/11/17 08:40:27;;;;;;;5.93;1.80;;;;;;;8.37;100.00;98441.47;5271561;28;20028;-72
2022/11/17 08:42:58;;;;;;;6.23;2.30;;;;;;;8.40;100.00;98437.88;5274162;28;20025;-72
2022/11/17 08:45:30;;;;;;;7.63;1.87;;;;;;;8.37;100.00;98454.47;5279723;28;20032;-71
2022/11/17 08:48:03;;;;;;;10.03;1.70;;;;;;;8.36;100.00;98447.56;5283827;28;20038;-70
2022/11/17 08:50:34;;;;;;;;;;;;;;;8.32;100.00;98446.03;5285390;28;20028;-71
2022/11/17 08:53:05;;;;;;;4.88;1.40;;;;;;;8.35;100.00;98447.63;5283678;28;19912;-71
2022/11/17 08:55:37;;;;;;;3.33;1.33;;;;;;;8.33;100.00;98444.25;5284538;28;20483;-72
2022/11/17 08:58:09;;;;;;;4.33;1.60;;;;;;;8.35;100.00;98453.66;5283566;28;20162;-71
2022/11/17 09:00:41;;;;;;;7.35;1.90;;;;;;;8.34;100.00;98446.78;5283653;28;20475;-73
2022/11/17 09:03:12;;;;;;;6.63;1.70;;;;;;;8.37;100.00;98457.06;5283528;28;20039;-72
2022/11/17 09:05:48;;;;;;;8.27;2.03;;;;;;;8.39;100.00;98465.63;5283610;28;20310;-73
2022/11/17 09:08:19;;;;;;;4.03;1.58;;;;;;;8.41;100.00;98465.56;5284050;28;20577;-72
2022/11/17 09:10:51;;;;;;;6.63;1.80;;;;;;;8.40;100.00;98467.31;5283612;28;20041;-74
2022/11/17 09:13:22;;;;;;;5.87;2.13;;;;;;;8.40;100.00;98469.91;5283881;28;20040;-72
2022/11/17 09:15:53;;;;;;;7.13;2.00;;;;;;;8.44;100.00;98468.06;5283063;28;20044;-72
2022/11/17 09:18:25;;;;;;;3.77;1.80;;;;;;;8.41;100.00;98483.72;5282619;28;20037;-72
2022/11/17 09:21:01;;;;;;;5.03;1.50;;;;;;;8.42;100.00;98480.22;5283766;28;20064;-73
2022/11/17 09:23:33;;;;;;;5.68;1.60;;;;;;;8.43;100.00;98475.88;5282178;28;20093;-72
2022/11/17 09:26:09;;;;;;;5.10;1.97;;;;;;;8.45;100.00;98487.91;5282231;28;20127;-72
2022/11/17 09:28:43;;;;;;;4.70;1.70;;;;;;;8.47;100.00;98493.91;5282329;28;20032;-73
2022/11/17 09:31:18;;;;;;;8.95;1.90;;;;;;;8.49;100.00;98491.25;5283073;28;20097;-72
2022/11/17 09:33:49;;;;;;;5.78;1.65;;;;;;;8.47;100.00;98500.81;5283464;28;20037;-72
2022/11/17 09:36:21;;;;;;;5.73;1.80;;;;;;;8.56;100.00;98496.13;5282872;28;20391;-73
2022/11/17 09:38:52;;;;;;;4.87;1.87;;;;;;;8.62;100.00;98487.22;5283694;28;20483;-73
2022/11/17 09:41:34;;;;;;;6.37;1.80;;;;;;;8.72;100.00;98508.47;5282576;28;20028;-71
2022/11/17 09:44:27;;;;;;;5.40;2.43;;;;;;;8.82;100.00;98501.13;5283201;28;20491;-73
2022/11/17 09:47:20;;;;;;;7.20;2.15;;;;;;;8.92;100.00;98513.66;5282782;28;20056;-71
2022/11/17 09:50:07;;;;;;;6.63;2.78;;;;;;;8.98;100.00;98509.09;5283384;28;20387;-72
2022/11/17 09:52:57;;;;;;;8.10;2.55;;;;;;;8.99;100.00;98514.25;5282405;28;20029;-73
2022/11/17 09:55:34;;;;;;;4.93;1.92;;;;;;;9.00;100.00;98513.34;5283195;28;20039;-71
2022/11/17 09:58:29;;;;;;;7.75;2.00;;;;;;;8.99;100.00;98521.22;5282482;28;20033;-74
2022/11/17 10:01:00;;;;;;;8.55;1.77;;;;;;;9.01;100.00;98525.41;5282017;28;20431;-72
2022/11/17 10:03:36;;;;;;;4.17;1.70;;;;;;;8.97;100.00;98523.00;5282784;28;20082;-72
2022/11/17 10:06:13;;;;;;;8.48;1.80;;;;;;;8.98;100.00;98520.34;5282014;28;20064;-74
2022/11/17 10:08:57;;;;;;;9.77;1.85;;;;;;;9.11;100.00;98521.53;5281731;28;20028;-72
2022/11/17 10:11:34;;;;;;;7.07;1.80;;;;;;;9.17;100.00;98541.19;5282060;28;20503;-73
2022/11/17 10:14:14;;;;;;;6.60;1.98;;;;;;;9.25;100.00;98539.09;5282636;28;20028;-71
2022/11/17 10:16:55;;;;;;;7.22;1.90;;;;;;;9.33;100.00;98551.78;5282104;28;20033;-73
2022/11/17 10:19:30;;;;;;;5.97;1.73;;;;;;;9.47;100.00;98546.81;5282750;28;20036;-73
2022/11/17 10:22:01;;;;;;;4.03;1.70;;;;;;;9.59;100.00;98552.38;5281132;28;20098;-72
2022/11/17 10:24:46;;;;;;;6.83;1.87;;;;;;;9.74;100.00;98556.06;5282231;28;20036;-71
2022/11/17 10:27:32;;;;;;;3.00;1.67;;;;;;;9.82;100.00;98553.94;5280763;28;20428;-74
2022/11/17 10:30:13;;;;;;;4.72;1.85;;;;;;;9.89;100.00;98555.38;5282045;28;20039;-73
2022/11/17 10:32:53;;;;;;;5.35;1.40;;;;;;;9.94;100.00;98565.56;5282303;28;20059;-72
2022/11/17 10:35:29;;;;;;;3.88;1.75;;;;;;;10.09;100.00;98567.44;5282112;28;20055;-71
2022/11/17 10:38:14;;;;;;;4.57;1.50;;;;;;;10.19;100.00;98576.53;5281405;28;20040;-73
2022/11/17 10:40:49;;;;;;;3.17;1.27;;;;;;;10.37;100.00;98576.63;5282172;28;20028;-72
2022/11/17 10:43:35;;;;;;;5.78;1.55;;;;;;;10.48;98.06;98579.56;5281562;28;20060;-71
2022/11/17 10:46:15;;;;;;;4.47;1.50;;;;;;;10.50;96.01;98587.31;5281118;28;20043;-71
2022/11/17 10:48:59;;;;;;;6.90;1.65;;;;;;;10.48;97.55;98594.31;5280797;28;20032;-73
2022/11/17 10:51:32;;;;;;;4.55;1.95;;;;;;;10.45;95.66;98594.47;5281290;28;20037;-73
2022/11/17 10:54:05;;;;;;;;;;;;;;;10.37;96.88;98606.09;5280704;28;20036;-72
2022/11/17 10:56:41;;;;;;;;;;;;;;;10.26;96.60;98586.69;5280403;28;19908;-71
2022/11/17 10:59:18;;;;;;;7.50;2.92;;;;;;;10.22;98.61;98591.16;5281398;28;19982;-71
2022/11/17 11:01:50;;;;;;;5.88;1.50;;;;;;;10.11;97.81;98598.63;5275325;28;20096;-72
2022/11/17 11:04:33;;;;;;;6.60;1.30;;;;;;;9.99;100.00;98597.44;5268289;28;20482;-73
2022/11/17 11:07:22;;;;;;;3.92;1.35;;;;;;;9.89;99.50;98596.16;5263596;28;20051;-73
2022/11/17 11:10:03;;;;;;;5.10;2.25;;;;;;;9.73;100.00;98596.00;5260732;28;20056;-72
2022/11/17 11:12:50;;;;;;;9.63;1.48;;;;;;;9.72;100.00;98600.34;5273258;28;20363;-72
2022/11/17 11:15:23;;;;;;;4.88;1.60;;;;;;;9.73;100.00;98603.81;5280965;28;20033;-72
2022/11/17 11:17:55;;;;;;;4.60;1.33;;;;;;;9.69;100.00;98600.47;5280699;28;20043;-72
2022/11/17 11:20:44;;;;;;;4.45;1.67;;;;;;;9.64;100.00;98603.31;5281370;28;20032;-72
2022/11/17 11:23:18;;;;;;;2.35;1.15;;;;;;;9.75;100.00;98599.38;5279591;28;20114;-71
2022/11/17 11:26:28;;;;;;;6.60;2.08;;;;;;;9.81;100.00;98609.50;5259977;28;20059;-73
2022/11/17 11:29:18;;;;;;;4.82;1.85;;;;;;;9.89;100.00;98614.38;5236769;28;20466;-72
2022/11/17 11:31:55;;;;;;;3.10;1.60;;;;;;;9.87;98.88;98611.84;5264113;28;20123;-70
2022/11/17 11:34:35;;;;;;;4.90;1.63;;;;;;;9.80;100.00;98620.81;5279913;28;20063;-71
2022/11/17 11:37:15;;;;;;;5.45;1.38;;;;;;;9.71;100.00;98623.81;5280285;28;20471;-72
2022/11/17 11:40:25;;;;;;;5.00;2.10;;;;;;;9.68;100.00;98628.25;5264066;28;20399;-70
2022/11/17 11:43:29;;;;;;;7.70;1.73;;;;;;;9.59;100.00;98625.22;5278671;28;20535;-73
2022/11/17 11:46:22;;;;;;;4.28;1.50;;;;;;;9.56;100.00;98633.16;5279411;28;20032;-73
2022/11/17 11:48:55;;;;;;;2.53;1.13;;;;;;;9.65;100.00;98627.56;5281087;28;20048;-71
2022/11/17 11:51:33;;;;;;;7.03;1.67;;;;;;;9.76;99.71;98633.13;5279276;28;20078;-72
2022/11/17 11:54:19;;;;;;;4.28;1.50;;;;;;;9.85;98.50;98637.06;5285034;28;20469;-71
2022/11/17 11:56:51;;;;;;;5.72;1.70;;;;;;;9.99;98.29;98645.13;5284383;28;20036;-73
2022/11/17 11:59:25;;;;;;;4.53;1.50;;;;;;;9.98;97.83;98647.78;5284239;28;20040;-72
2022/11/17 12:02:02;;;;;;;6.22;1.52;;;;;;;9.98;97.31;98639.97;5265475;28;20051;-72
2022/11/17 12:04:42;;;;;;;5.78;1.50;;;;;;;10.03;96.35;98651.06;5263732;28;20039;-71
2022/11/17 12:07:38;;;;;;;5.07;1.45;;;;;;;9.97;96.43;98646.94;5273267;28;20471;-73
2022/11/17 12:10:18;;;;;;;4.50;1.98;;;;;;;9.99;95.71;98642.50;5285299;28;20446;-72
2022/11/17 12:12:50;;;;;;;6.10;1.98;;;;;;;10.06;95.52;98645.69;5284473;28;20036;-72
2022/11/17 12:15:21;;;;;;;4.30;1.65;;;;;;;10.13;95.28;98656.69;5283832;28;20036;-71
2022/11/17 12:17:59;;;;;;;6.10;1.57;;;;;;;10.22;94.24;98641.50;5284407;28;20036;-72
2022/11/17 12:20:45;;;;;;;3.67;1.42;;;;;;;10.30;94.51;98659.34;5284939;28;20029;-71
2022/11/17 12:23:33;;;;;;;7.35;1.88;;;;;;;10.34;95.70;98666.16;5284347;28;20538;-74
2022/11/17 12:26:06;;;;;;;5.07;1.77;;;;;;;10.32;94.50;98661.88;5283991;28;20062;-71
2022/11/17 12:28:39;;;;;;;5.78;1.60;;;;;;;10.33;95.46;98672.25;5284831;28;20036;-72
2022/11/17 12:31:31;;;;;;;3.72;1.30;;;;;;;10.42;92.17;98672.75;5283568;28;20468;-71
2022/11/17 12:34:02;;;;;;;9.10;1.42;;;;;;;10.52;93.01;98672.25;5284605;28;20413;-72
2022/11/17 12:36:35;;;;;;;6.13;2.17;;;;;;;10.49;93.15;98664.59;5270361;28;20037;-72
2022/11/17 12:39:44;;;;;;;4.15;1.70;;;;;;;10.55;92.40;98671.28;5263708;28;20037;-72
2022/11/17 12:42:16;;;;;;;8.25;1.83;;;;;;;10.50;93.47;98679.31;5273214;28;20033;-73
2022/11/17 12:44:55;;;;;;;3.40;1.20;;;;;;;10.37;93.20;98679.03;5283763;28;20380;-71